Time;durP1;ratioP1;P1;durP2;ratioP2;P2;SDS_P1;SDS_P2;PMS_P1;PMS_P2;Temp;Humidity;BMP_temperature;BMP_pressure;BME280_temperature;BME280_humidity;BME280_pressure;Samples;Min_cycle;Max_cycle;Signal;HPM_P1;HPM_P2
2023/08/29 00:03:11;;;;;;;2.67;2.47;;;15.10;99.90;;;;;;9611211;23;20178;-86
2023/08/29 00:06:56;;;;;;;2.50;2.30;;;15.10;99.90;;;;;;9607501;23;20162;-87
2023/08/29 00:10:43;;;;;;;2.95;2.60;;;15.10;99.90;;;;;;9609585;23;20185;-86
2023/08/29 00:14:29;;;;;;;3.25;2.03;;;15.10;99.90;;;;;;9636608;23;20260;-85
2023/08/29 00:18:14;;;;;;;2.55;2.05;;;15.10;99.90;;;;;;9612519;23;20158;-86
2023/08/29 00:22:00;;;;;;;1.50;1.40;;;15.00;99.90;;;;;;9639624;23;20200;-86
2023/08/29 00:25:46;;;;;;;2.53;1.53;;;15.00;99.90;;;;;;9611783;23;20208;-86
2023/08/29 00:29:31;;;;;;;3.67;1.80;;;15.00;99.90;;;;;;9638962;23;20150;-86
2023/08/29 00:33:17;;;;;;;1.70;1.60;;;15.00;99.90;;;;;;9612061;23;20193;-86
2023/08/29 00:37:03;;;;;;;1.70;1.60;;;15.00;99.90;;;;;;9611240;23;20610;-85
2023/08/29 00:40:49;;;;;;;2.22;1.70;;;15.00;99.90;;;;;;9612379;23;20340;-86
2023/08/29 00:44:35;;;;;;;2.10;1.80;;;15.00;99.90;;;;;;9611921;23;20186;-86
2023/08/29 00:48:21;;;;;;;1.73;1.63;;;15.00;99.90;;;;;;9638873;23;20231;-86
2023/08/29 00:52:07;;;;;;;2.13;1.93;;;15.00;99.90;;;;;;9612638;23;20715;-86
2023/08/29 00:55:55;;;;;;;2.00;1.90;;;15.00;99.90;;;;;;9638756;23;20567;-85
2023/08/29 00:59:41;;;;;;;3.20;2.22;;;15.10;99.90;;;;;;9638349;23;20174;-86
2023/08/29 01:03:26;;;;;;;3.00;2.15;;;15.00;99.90;;;;;;9612278;23;20547;-85
2023/08/29 01:07:13;;;;;;;4.18;1.95;;;15.00;99.90;;;;;;9611714;23;20196;-86
2023/08/29 01:11:21;;;;;;;2.10;1.90;;;15.00;99.90;;;;;;9612210;23;20170;-85
2023/08/29 01:15:18;;;;;;;2.03;1.83;;;15.00;99.90;;;;;;9639161;23;20253;-86
2023/08/29 01:19:13;;;;;;;2.53;2.33;;;15.00;99.90;;;;;;9611726;23;20150;-85
2023/08/29 01:23:12;;;;;;;2.15;1.98;;;15.00;99.90;;;;;;9611992;23;20308;-88
2023/08/29 01:27:00;;;;;;;3.15;1.88;;;15.00;99.90;;;;;;9611874;23;20150;-87
2023/08/29 01:30:46;;;;;;;3.20;2.40;;;15.00;99.90;;;;;;9610718;23;20201;-86
2023/08/29 01:34:32;;;;;;;5.28;2.30;;;15.00;99.90;;;;;;9612075;23;20273;-86
2023/08/29 01:38:18;;;;;;;2.92;2.70;;;14.90;99.90;;;;;;9638344;23;20154;-87
2023/08/29 01:42:03;;;;;;;2.28;2.10;;;14.90;99.90;;;;;;9612171;23;20161;-86
2023/08/29 01:45:49;;;;;;;2.78;2.15;;;14.90;99.90;;;;;;9612857;23;20312;-87
2023/08/29 01:49:36;;;;;;;2.58;2.13;;;14.90;99.90;;;;;;9610831;23;20208;-87
2023/08/29 01:53:21;;;;;;;2.50;2.30;;;14.90;99.90;;;;;;9611835;23;20193;-87
2023/08/29 01:57:10;;;;;;;2.55;2.35;;;14.80;99.90;;;;;;9611765;23;20150;-87
2023/08/29 02:00:56;;;;;;;1.85;1.65;;;14.80;99.90;;;;;;9611927;23;20185;-86
2023/08/29 02:04:42;;;;;;;1.65;1.55;;;14.80;99.90;;;;;;9638482;23;20181;-88
2023/08/29 02:08:27;;;;;;;1.83;1.73;;;14.90;99.90;;;;;;9637889;22;20154;-86
2023/08/29 02:12:13;;;;;;;1.90;1.80;;;14.90;99.90;;;;;;9661510;22;20157;-86
2023/08/29 02:16:02;;;;;;;1.83;1.73;;;14.80;99.90;;;;;;9617962;23;20633;-85
2023/08/29 02:19:48;;;;;;;1.98;1.88;;;14.80;99.90;;;;;;9638823;23;20423;-86
2023/08/29 02:23:33;;;;;;;3.38;2.10;;;14.80;99.90;;;;;;9610751;23;20251;-86
2023/08/29 02:27:19;;;;;;;1.88;1.77;;;14.80;99.90;;;;;;9611060;23;20231;-86
2023/08/29 02:31:06;;;;;;;2.10;1.90;;;14.80;99.90;;;;;;9610493;23;20578;-86
2023/08/29 02:34:52;;;;;;;1.85;1.75;;;14.80;99.90;;;;;;9610416;23;20193;-86
2023/08/29 02:38:38;;;;;;;3.72;1.63;;;14.80;99.90;;;;;;9611453;23;20161;-86
2023/08/29 02:42:23;;;;;;;5.63;1.65;;;14.70;99.90;;;;;;9637034;23;20160;-87
2023/08/29 02:46:09;;;;;;;1.40;1.30;;;14.80;99.90;;;;;;9611219;23;20166;-85
2023/08/29 02:49:55;;;;;;;1.30;1.20;;;14.80;99.90;;;;;;9609736;23;20158;-86
2023/08/29 02:53:40;;;;;;;1.23;1.20;;;14.70;99.90;;;;;;9610797;23;20190;-86
2023/08/29 02:57:27;;;;;;;1.80;1.10;;;14.60;99.90;;;;;;9611300;23;20158;-86
2023/08/29 03:01:13;;;;;;;0.93;0.93;;;14.60;99.90;;;;;;9637432;23;20154;-85
2023/08/29 03:04:59;;;;;;;0.82;0.82;;;14.60;99.90;;;;;;9610967;23;20178;-86
2023/08/29 03:08:45;;;;;;;1.30;1.20;;;14.70;99.90;;;;;;9610906;23;20158;-86
2023/08/29 03:12:30;;;;;;;0.90;0.90;;;14.70;99.90;;;;;;9609821;23;20205;-86
2023/08/29 03:16:17;;;;;;;1.20;1.10;;;14.70;99.90;;;;;;9636595;23;20177;-86
2023/08/29 03:20:05;;;;;;;1.20;1.10;;;14.70;99.90;;;;;;9610133;23;20215;-87
2023/08/29 03:23:50;;;;;;;0.73;0.73;;;14.70;99.90;;;;;;9609296;23;20578;-86
2023/08/29 03:27:36;;;;;;;1.45;1.35;;;14.70;99.90;;;;;;9609685;23;20165;-86
2023/08/29 03:31:21;;;;;;;1.60;1.27;;;14.70;99.90;;;;;;9610361;23;20166;-86
2023/08/29 03:35:08;;;;;;;1.48;1.38;;;14.60;99.90;;;;;;9609379;23;20190;-86
2023/08/29 03:38:53;;;;;;;1.10;1.05;;;14.60;99.90;;;;;;9636901;23;20146;-85
2023/08/29 03:42:39;;;;;;;3.08;1.20;;;14.60;99.90;;;;;;9610886;23;20636;-87
2023/08/29 03:46:25;;;;;;;1.27;1.17;;;14.60;99.90;;;;;;9609909;23;20249;-86
2023/08/29 03:50:10;;;;;;;1.00;1.00;;;14.60;99.90;;;;;;9638439;23;20153;-87
2023/08/29 03:53:56;;;;;;;0.90;0.90;;;14.60;99.90;;;;;;9612132;23;20189;-86
2023/08/29 03:57:42;;;;;;;0.90;0.90;;;14.60;99.90;;;;;;9612962;23;20170;-86
2023/08/29 04:01:29;;;;;;;1.40;1.17;;;14.60;99.90;;;;;;9613632;23;20219;-86
2023/08/29 04:05:15;;;;;;;1.10;1.00;;;14.70;99.90;;;;;;9640045;23;20177;-85
2023/08/29 04:09:03;;;;;;;1.75;1.65;;;14.60;99.90;;;;;;9613262;23;20170;-86
2023/08/29 04:12:49;;;;;;;1.30;1.20;;;14.60;99.90;;;;;;9639280;23;20201;-87
2023/08/29 04:16:34;;;;;;;1.80;1.70;;;14.70;99.90;;;;;;9612728;23;20155;-86
2023/08/29 04:20:21;;;;;;;1.10;1.10;;;14.70;99.90;;;;;;9639099;23;20161;-86
2023/08/29 04:24:07;;;;;;;1.07;1.07;;;14.60;99.90;;;;;;9613257;23;20716;-86
2023/08/29 04:27:53;;;;;;;1.17;1.10;;;14.60;99.90;;;;;;9613018;23;20154;-85
2023/08/29 04:31:39;;;;;;;1.30;1.20;;;14.70;99.90;;;;;;9616116;23;20618;-87
2023/08/29 04:35:25;;;;;;;1.27;1.17;;;14.70;99.90;;;;;;9616604;23;20186;-84
2023/08/29 04:39:10;;;;;;;1.30;1.20;;;14.70;99.90;;;;;;9641889;23;20158;-86
2023/08/29 04:42:56;;;;;;;1.00;0.93;;;14.70;99.90;;;;;;9615642;23;20181;-86
2023/08/29 04:46:43;;;;;;;1.80;1.70;;;14.70;99.90;;;;;;9623095;23;20158;-84
2023/08/29 04:50:30;;;;;;;1.67;1.58;;;14.60;99.90;;;;;;9642494;23;20162;-86
2023/08/29 04:54:15;;;;;;;1.33;1.23;;;14.60;99.90;;;;;;9652625;23;20170;-85
2023/08/29 04:58:01;;;;;;;1.67;1.40;;;14.60;99.90;;;;;;9625520;23;20161;-85
2023/08/29 05:01:47;;;;;;;1.40;1.30;;;14.60;99.90;;;;;;9622759;23;20234;-85
2023/08/29 05:05:32;;;;;;;1.13;1.03;;;14.50;99.90;;;;;;9647525;23;20486;-85
2023/08/29 05:09:18;;;;;;;1.60;1.50;;;14.40;99.90;;;;;;9617386;23;20541;-85
2023/08/29 05:13:03;;;;;;;2.07;0.80;;;14.40;99.90;;;;;;9616024;23;20244;-85
2023/08/29 05:16:49;;;;;;;1.20;1.10;;;14.40;99.90;;;;;;9615163;23;20154;-85
2023/08/29 05:20:36;;;;;;;1.20;1.10;;;14.40;99.90;;;;;;9613999;23;20158;-85
2023/08/29 05:24:21;;;;;;;1.20;1.10;;;14.40;99.90;;;;;;9615964;23;20310;-86
2023/08/29 05:28:07;;;;;;;1.30;1.17;;;14.40;99.90;;;;;;9616930;23;20158;-86
2023/08/29 05:31:52;;;;;;;1.40;1.10;;;14.30;99.90;;;;;;9646925;23;20630;-87
2023/08/29 05:35:38;;;;;;;1.50;1.40;;;14.30;99.90;;;;;;9618164;23;20700;-85
2023/08/29 05:39:27;;;;;;;2.37;1.20;;;14.40;99.90;;;;;;9619879;23;20160;-87
2023/08/29 05:43:13;;;;;;;1.40;1.30;;;14.50;99.90;;;;;;9619779;23;20663;-87
2023/08/29 05:46:59;;;;;;;1.10;1.10;;;14.50;99.90;;;;;;9623978;23;20158;-86
2023/08/29 05:50:44;;;;;;;0.83;0.83;;;14.50;99.90;;;;;;9659237;22;20188;-90
2023/08/29 05:54:38;;;;;;;0.77;0.77;;;14.40;99.90;;;;;;9647256;23;20202;-85
2023/08/29 05:58:25;;;;;;;1.47;0.83;;;14.30;99.90;;;;;;9649501;23;20138;-87
2023/08/29 06:02:11;;;;;;;1.00;0.90;;;14.30;99.90;;;;;;9620169;23;20699;-86
2023/08/29 06:05:57;;;;;;;0.80;0.80;;;14.20;99.90;;;;;;9626834;23;20174;-87
2023/08/29 06:09:42;;;;;;;0.80;0.70;;;14.20;99.90;;;;;;9624936;23;20656;-87
2023/08/29 06:13:33;;;;;;;1.77;0.90;;;14.10;99.90;;;;;;9616510;23;20189;-86
2023/08/29 06:17:19;;;;;;;2.13;0.90;;;14.10;99.90;;;;;;9642698;23;20139;-87
2023/08/29 06:21:05;;;;;;;0.80;0.80;;;14.10;99.90;;;;;;9616057;23;20205;-86
2023/08/29 06:24:51;;;;;;;1.07;0.80;;;14.10;99.90;;;;;;9615437;23;20319;-85
2023/08/29 06:28:37;;;;;;;4.87;0.77;;;14.10;99.90;;;;;;9614863;23;20162;-86
2023/08/29 06:32:23;;;;;;;0.77;0.70;;;14.20;99.90;;;;;;9614848;23;20244;-85
2023/08/29 06:36:08;;;;;;;0.60;0.60;;;14.10;99.90;;;;;;9641260;23;20181;-85
2023/08/29 06:39:54;;;;;;;6.90;0.90;;;14.20;99.90;;;;;;9613855;23;20158;-86
2023/08/29 06:43:39;;;;;;;0.80;0.80;;;14.30;99.90;;;;;;9614792;23;20192;-86
2023/08/29 06:47:30;;;;;;;1.30;0.90;;;14.30;99.90;;;;;;9641518;23;20157;-86
2023/08/29 06:51:16;;;;;;;0.93;0.90;;;14.20;99.90;;;;;;9615236;23;20174;-87
2023/08/29 06:55:03;;;;;;;0.80;0.70;;;14.20;99.90;;;;;;9642235;23;20253;-86
2023/08/29 06:58:48;;;;;;;0.70;0.70;;;14.20;99.90;;;;;;9614464;23;20150;-85
2023/08/29 07:02:38;;;;;;;1.73;0.90;;;14.30;99.90;;;;;;9614978;23;20590;-86
2023/08/29 07:06:23;;;;;;;0.60;0.60;;;14.30;99.90;;;;;;9614956;23;20158;-86
2023/08/29 07:10:09;;;;;;;1.10;1.00;;;14.30;99.90;;;;;;9639683;23;20173;-87
2023/08/29 07:13:55;;;;;;;1.60;1.50;;;14.30;99.90;;;;;;9641382;23;20181;-86
2023/08/29 07:17:43;;;;;;;7.87;7.07;;;14.20;99.90;;;;;;9615804;23;20161;-86
2023/08/29 07:21:28;;;;;;;9.80;8.80;;;14.20;99.90;;;;;;9614958;23;20242;-85
2023/08/29 07:25:15;;;;;;;16.20;14.60;;;14.20;99.90;;;;;;9641918;23;20185;-86
2023/08/29 07:29:00;;;;;;;4.67;4.27;;;14.30;99.90;;;;;;9613667;23;20166;-86
2023/08/29 07:32:48;;;;;;;4.17;3.77;;;14.30;99.90;;;;;;9614335;23;20182;-86
2023/08/29 07:36:34;;;;;;;13.07;11.67;;;14.30;99.90;;;;;;9615586;23;20234;-86
2023/08/29 07:40:20;;;;;;;7.80;6.97;;;14.30;99.90;;;;;;9615092;23;20162;-85
2023/08/29 07:44:05;;;;;;;4.67;3.80;;;14.30;99.90;;;;;;9641922;23;20170;-86
2023/08/29 07:47:51;;;;;;;5.30;4.60;;;14.40;99.90;;;;;;9614771;23;20158;-86
2023/08/29 07:51:37;;;;;;;5.33;4.83;;;14.40;99.90;;;;;;9615122;23;20535;-87
2023/08/29 07:55:25;;;;;;;2.70;2.40;;;14.40;99.90;;;;;;9641566;23;20171;-85
2023/08/29 07:59:11;;;;;;;1.90;1.50;;;14.40;99.90;;;;;;9614191;23;20164;-86
2023/08/29 08:02:56;;;;;;;1.75;1.20;;;14.40;99.90;;;;;;9614447;23;20178;-87
2023/08/29 08:06:42;;;;;;;1.53;1.20;;;14.40;99.90;;;;;;9614786;23;20157;-86
2023/08/29 08:10:28;;;;;;;1.17;1.10;;;14.40;99.90;;;;;;9614962;23;20630;-86
2023/08/29 08:14:13;;;;;;;1.50;1.40;;;14.40;99.90;;;;;;9614179;23;20505;-86
2023/08/29 08:17:59;;;;;;;1.50;1.40;;;14.30;99.90;;;;;;9615070;23;20158;-86
2023/08/29 08:21:45;;;;;;;1.38;1.30;;;14.40;99.90;;;;;;9641116;23;20157;-86
2023/08/29 08:25:30;;;;;;;3.13;1.33;;;14.40;99.90;;;;;;9615127;23;20186;-86
2023/08/29 08:29:16;;;;;;;4.07;3.37;;;14.30;99.90;;;;;;9614767;23;20665;-86
2023/08/29 08:33:01;;;;;;;11.93;9.93;;;14.20;99.90;;;;;;9614525;23;20193;-86
2023/08/29 08:36:47;;;;;;;9.93;8.80;;;14.20;99.90;;;;;;9616456;23;20629;-86
2023/08/29 08:40:41;;;;;;;5.87;4.57;;;14.20;99.90;;;;;;9644089;23;20605;-87
2023/08/29 08:44:27;;;;;;;3.63;2.90;;;14.30;99.90;;;;;;9616984;23;20185;-87
2023/08/29 08:48:13;;;;;;;4.13;3.67;;;14.30;99.90;;;;;;9617534;23;20317;-86
2023/08/29 08:51:59;;;;;;;3.50;3.10;;;14.40;99.90;;;;;;9616747;23;20165;-86
2023/08/29 08:55:45;;;;;;;2.37;2.00;;;14.40;99.90;;;;;;9617275;23;20888;-87
2023/08/29 08:59:31;;;;;;;2.83;2.63;;;14.50;99.90;;;;;;9616874;23;20531;-87
2023/08/29 09:03:16;;;;;;;2.33;1.93;;;14.50;99.90;;;;;;9616903;23;20262;-86
2023/08/29 09:07:03;;;;;;;3.00;2.70;;;14.50;99.90;;;;;;9644229;23;20360;-87
2023/08/29 09:10:52;;;;;;;1.90;1.60;;;14.50;99.90;;;;;;9617021;23;20176;-87
2023/08/29 09:14:41;;;;;;;1.50;1.40;;;14.50;99.90;;;;;;9616286;23;20182;-86
2023/08/29 09:18:31;;;;;;;3.63;1.93;;;14.40;99.90;;;;;;9643728;23;20161;-86
2023/08/29 09:22:18;;;;;;;1.13;1.03;;;14.40;99.90;;;;;;9617929;23;20154;-87
2023/08/29 09:26:20;;;;;;;1.10;0.87;;;14.40;99.90;;;;;;9654112;22;20170;-88
2023/08/29 09:30:10;;;;;;;1.10;1.00;;;14.50;99.90;;;;;;9655987;22;20536;-86
2023/08/29 09:33:56;;;;;;;1.00;1.00;;;14.50;99.90;;;;;;9619255;23;20181;-86
2023/08/29 09:37:54;;;;;;;0.77;0.77;;;14.60;99.90;;;;;;9616110;23;20154;-86
2023/08/29 09:41:39;;;;;;;1.03;1.00;;;14.60;99.90;;;;;;9615964;23;20617;-87
2023/08/29 09:45:31;;;;;;;0.70;0.70;;;14.60;99.90;;;;;;9616118;23;20520;-86
2023/08/29 09:49:16;;;;;;;0.70;0.70;;;14.60;99.90;;;;;;9616455;23;20158;-88
2023/08/29 09:53:03;;;;;;;0.87;0.80;;;14.50;99.90;;;;;;9615293;23;20685;-87
2023/08/29 09:56:48;;;;;;;1.30;1.20;;;14.60;99.90;;;;;;9616810;23;20610;-86
2023/08/29 10:00:41;;;;;;;1.80;1.23;;;14.60;99.90;;;;;;9616053;23;20497;-86
2023/08/29 10:04:29;;;;;;;1.07;1.07;;;14.50;99.90;;;;;;9615673;23;20220;-88
2023/08/29 10:08:28;;;;;;;0.70;0.70;;;14.60;99.90;;;;;;9615804;23;20165;-87
2023/08/29 10:12:14;;;;;;;3.13;1.00;;;14.60;99.90;;;;;;9615560;23;20181;-86
2023/08/29 10:16:01;;;;;;;0.60;0.60;;;14.60;99.90;;;;;;9643048;23;20174;-89
2023/08/29 10:19:48;;;;;;;0.80;0.80;;;14.60;99.90;;;;;;9615980;23;20154;-86
2023/08/29 10:23:36;;;;;;;20.87;14.87;;;14.60;99.90;;;;;;9616229;23;20181;-87
2023/08/29 10:27:22;;;;;;;21.73;15.33;;;14.70;99.90;;;;;;9615826;23;20153;-87
2023/08/29 10:31:09;;;;;;;33.83;23.43;;;14.70;99.90;;;;;;9642531;23;20154;-87
2023/08/29 10:34:55;;;;;;;14.00;9.67;;;14.70;99.90;;;;;;9615102;23;20599;-86
2023/08/29 10:38:47;;;;;;;15.63;11.63;;;14.70;99.90;;;;;;9615238;23;20150;-87
2023/08/29 10:42:59;;;;;;;9.85;8.23;;;14.70;99.90;;;;;;9615416;23;20146;-86
2023/08/29 10:46:52;;;;;;;14.77;10.83;;;14.70;99.90;;;;;;9615430;23;20172;-86
2023/08/29 10:50:37;;;;;;;4.00;3.23;;;14.60;99.90;;;;;;9615613;23;20212;-87
2023/08/29 10:54:29;;;;;;;1.40;1.30;;;14.70;99.90;;;;;;9614823;23;20190;-86
2023/08/29 10:58:37;;;;;;;1.37;1.27;;;14.70;99.90;;;;;;9641286;23;20185;-87
2023/08/29 11:02:29;;;;;;;0.90;0.90;;;14.70;99.90;;;;;;9641262;23;20162;-86
2023/08/29 11:06:57;;;;;;;2.15;1.00;;;14.70;99.90;;;;;;9614599;23;20166;-87
2023/08/29 11:10:43;;;;;;;1.20;1.00;;;14.80;99.90;;;;;;9615194;23;20182;-86
2023/08/29 11:14:48;;;;;;;2.22;1.00;;;14.80;99.90;;;;;;9614984;23;20211;-86
2023/08/29 11:18:34;;;;;;;0.90;0.90;;;14.80;99.90;;;;;;9641284;23;20165;-86
2023/08/29 11:22:28;;;;;;;1.88;1.10;;;14.90;99.90;;;;;;9611486;23;20160;-86
2023/08/29 11:26:14;;;;;;;1.17;1.07;;;15.00;99.90;;;;;;9690118;22;20285;-86
2023/08/29 11:30:02;;;;;;;0.98;0.85;;;15.00;99.90;;;;;;9705362;22;20643;-88
2023/08/29 11:33:48;;;;;;;0.82;0.82;;;15.10;99.90;;;;;;9704656;22;20279;-89
2023/08/29 11:37:34;;;;;;;1.55;0.80;;;15.10;99.90;;;;;;9693368;22;20230;-87
2023/08/29 11:41:20;;;;;;;0.70;0.70;;;15.20;99.90;;;;;;9698810;22;20153;-88
2023/08/29 11:45:06;;;;;;;4.28;2.53;;;15.20;99.90;;;;;;9706264;22;20184;-89
2023/08/29 11:48:52;;;;;;;3.05;2.00;;;15.20;99.90;;;;;;9733382;22;20133;-87
2023/08/29 11:52:38;;;;;;;2.97;1.90;;;15.20;99.90;;;;;;9705195;22;20157;-89
2023/08/29 11:56:23;;;;;;;0.95;0.93;;;15.20;99.90;;;;;;9706631;22;20184;-89
2023/08/29 12:00:10;;;;;;;0.70;0.70;;;15.10;99.90;;;;;;9705816;22;20599;-89
2023/08/29 12:03:55;;;;;;;0.60;0.60;;;15.10;99.90;;;;;;9705527;22;20654;-89
2023/08/29 12:07:41;;;;;;;0.53;0.53;;;15.20;99.90;;;;;;9705876;22;20474;-87
2023/08/29 12:11:41;;;;;;;0.98;0.90;;;15.20;99.90;;;;;;9706835;22;20205;-87
2023/08/29 12:15:36;;;;;;;0.55;0.55;;;15.30;99.90;;;;;;9708503;22;20188;-87
2023/08/29 12:19:21;;;;;;;0.68;0.68;;;15.30;99.90;;;;;;9708094;22;20610;-87
2023/08/29 12:23:10;;;;;;;0.60;0.60;;;15.30;99.90;;;;;;9711069;22;20489;-89
2023/08/29 12:26:55;;;;;;;0.28;0.28;;;15.30;99.90;;;;;;9756230;22;20155;-88
2023/08/29 12:30:41;;;;;;;0.40;0.40;;;15.30;99.90;;;;;;9756421;22;20160;-88
2023/08/29 12:34:27;;;;;;;0.30;0.30;;;15.20;99.90;;;;;;9754332;22;20269;-88
2023/08/29 12:38:13;;;;;;;0.40;0.40;;;15.20;99.90;;;;;;9756539;22;20205;-88
2023/08/29 12:41:59;;;;;;;0.40;0.40;;;15.30;99.90;;;;;;9756096;22;20357;-89
2023/08/29 12:45:44;;;;;;;0.35;0.35;;;15.20;99.90;;;;;;9754118;22;20212;-90
2023/08/29 12:49:31;;;;;;;0.40;0.40;;;15.10;99.90;;;;;;9755298;22;20477;-89
2023/08/29 12:53:16;;;;;;;0.30;0.30;;;15.10;99.90;;;;;;9754055;22;20180;-90
2023/08/29 12:57:03;;;;;;;0.65;0.50;;;15.20;99.90;;;;;;9754415;22;20163;-90
2023/08/29 13:00:49;;;;;;;0.93;0.40;;;15.30;99.90;;;;;;9754686;22;20668;-89
2023/08/29 13:04:35;;;;;;;1.92;0.40;;;15.30;99.90;;;;;;9755824;22;20721;-88
2023/08/29 13:08:20;;;;;;;0.90;0.60;;;15.30;99.90;;;;;;9755393;22;20191;-90
2023/08/29 13:12:06;;;;;;;0.80;0.43;;;15.20;99.90;;;;;;9752665;22;20160;-87
2023/08/29 13:15:52;;;;;;;0.70;0.43;;;15.20;99.90;;;;;;9755072;22;20226;-89
2023/08/29 13:19:39;;;;;;;0.70;0.70;;;15.30;99.90;;;;;;9757717;22;20595;-91
2023/08/29 13:23:24;;;;;;;0.60;0.60;;;15.30;99.90;;;;;;9788322;22;20176;-92
2023/08/29 13:27:10;;;;;;;0.57;0.57;;;15.30;99.90;;;;;;9787029;22;20129;-91
2023/08/29 13:30:59;;;;;;;0.60;0.60;;;15.20;99.90;;;;;;9758557;22;20160;-92
2023/08/29 13:34:45;;;;;;;0.70;0.68;;;15.10;99.90;;;;;;9758517;22;20179;-92
2023/08/29 13:38:30;;;;;;;0.43;0.40;;;15.10;99.90;;;;;;9759800;22;20254;-93
2023/08/29 13:42:17;;;;;;;1.48;0.80;;;15.10;99.90;;;;;;9759796;22;20214;-92
2023/08/29 13:46:02;;;;;;;1.10;1.00;;;15.20;99.90;;;;;;9758946;22;20777;-92
2023/08/29 13:49:48;;;;;;;2.60;1.00;;;15.20;99.90;;;;;;9757951;22;20495;-93
2023/08/29 13:53:35;;;;;;;0.50;0.50;;;15.20;99.90;;;;;;9785768;22;20203;-92
2023/08/29 13:57:20;;;;;;;3.53;0.50;;;15.40;99.90;;;;;;9758397;22;20179;-92
2023/08/29 14:01:06;;;;;;;1.33;0.90;;;15.40;99.90;;;;;;9763455;22;20179;-92
2023/08/29 14:04:52;;;;;;;1.43;0.67;;;15.40;99.90;;;;;;9769082;22;20176;-92
2023/08/29 14:08:37;;;;;;;0.97;0.90;;;15.40;99.90;;;;;;9773008;22;20156;-93
2023/08/29 14:12:23;;;;;;;2.70;1.43;;;15.30;99.90;;;;;;9770597;22;20184;-92
2023/08/29 14:16:09;;;;;;;1.60;1.30;;;15.40;99.90;;;;;;9759170;22;20176;-93
2023/08/29 14:19:56;;;;;;;1.73;1.63;;;15.40;99.90;;;;;;9759542;22;20163;-92
2023/08/29 14:23:42;;;;;;;4.97;0.90;;;15.30;99.90;;;;;;9760062;22;20192;-92
2023/08/29 14:27:28;;;;;;;0.70;0.70;;;15.30;99.90;;;;;;9759310;22;20191;-93
2023/08/29 14:31:13;;;;;;;0.77;0.77;;;15.30;99.90;;;;;;9758338;22;20496;-92
2023/08/29 14:34:59;;;;;;;0.90;0.77;;;15.40;99.90;;;;;;9758981;22;20179;-93
2023/08/29 14:38:44;;;;;;;0.70;0.70;;;15.40;99.90;;;;;;9758244;22;20171;-92
2023/08/29 14:42:30;;;;;;;1.77;0.90;;;15.40;99.90;;;;;;9765579;22;20160;-94
2023/08/29 14:46:16;;;;;;;3.28;0.80;;;15.50;99.90;;;;;;9770519;22;20210;-92
2023/08/29 14:50:02;;;;;;;3.53;2.30;;;15.50;99.90;;;;;;9766517;22;20516;-93
2023/08/29 14:53:49;;;;;;;1.08;0.95;;;15.50;99.90;;;;;;9763326;22;20643;-93
2023/08/29 14:57:37;;;;;;;0.80;0.80;;;15.50;99.90;;;;;;9768486;22;20159;-93
2023/08/29 15:01:22;;;;;;;1.40;1.30;;;15.40;99.90;;;;;;9765406;22;20156;-92
2023/08/29 15:05:09;;;;;;;3.53;1.20;;;15.50;99.90;;;;;;9756803;22;20180;-90
2023/08/29 15:08:55;;;;;;;0.93;0.93;;;15.70;99.90;;;;;;9757412;22;20159;-90
2023/08/29 15:12:40;;;;;;;1.45;1.30;;;15.90;99.90;;;;;;9759668;22;20156;-91
2023/08/29 15:16:27;;;;;;;2.40;1.10;;;16.20;99.90;;;;;;9760290;22;20190;-91
2023/08/29 15:20:19;;;;;;;1.52;1.35;;;16.30;99.90;;;;;;9761866;22;20144;-92
2023/08/29 15:24:05;;;;;;;1.48;1.20;;;16.40;99.90;;;;;;9766644;22;20195;-92
2023/08/29 15:27:53;;;;;;;1.40;1.00;;;16.50;99.90;;;;;;9774128;22;20156;-94
2023/08/29 15:31:39;;;;;;;1.35;1.25;;;16.60;99.90;;;;;;9778360;22;20602;-92
2023/08/29 15:35:24;;;;;;;0.70;0.70;;;16.60;99.90;;;;;;9769257;22;20244;-94
2023/08/29 15:39:11;;;;;;;3.65;0.85;;;16.60;99.90;;;;;;9771169;22;20168;-93
2023/08/29 15:42:58;;;;;;;1.95;0.90;;;16.60;99.90;;;;;;9771946;22;20155;-92
2023/08/29 15:46:43;;;;;;;0.82;0.70;;;16.60;99.90;;;;;;9779213;22;20163;-93
2023/08/29 15:50:29;;;;;;;1.23;0.80;;;16.70;99.90;;;;;;9779229;22;20179;-92
2023/08/29 15:54:14;;;;;;;0.70;0.70;;;16.70;99.90;;;;;;9777102;22;20389;-93
2023/08/29 15:58:01;;;;;;;0.60;0.60;;;16.80;99.90;;;;;;9774117;22;20156;-92
2023/08/29 16:01:47;;;;;;;1.50;0.90;;;16.80;99.90;;;;;;9771122;22;20583;-92
2023/08/29 16:05:33;;;;;;;1.27;0.80;;;16.80;99.90;;;;;;9772491;22;20897;-93
2023/08/29 16:09:18;;;;;;;1.98;0.98;;;16.80;99.90;;;;;;9774973;22;20156;-92
2023/08/29 16:13:04;;;;;;;1.35;1.15;;;16.80;99.90;;;;;;9776051;22;20163;-92
2023/08/29 16:16:49;;;;;;;1.70;0.90;;;16.70;99.90;;;;;;9775651;22;20179;-93
2023/08/29 16:20:41;;;;;;;1.25;1.15;;;16.70;99.90;;;;;;9760015;22;20156;-93
2023/08/29 16:24:27;;;;;;;1.60;1.50;;;16.70;99.90;;;;;;9759833;22;20191;-92
2023/08/29 16:28:19;;;;;;;1.95;1.75;;;16.60;99.90;;;;;;9760450;22;20748;-92
2023/08/29 16:32:48;;;;;;;2.40;1.95;;;16.60;99.90;;;;;;9759531;22;20156;-92
2023/08/29 16:36:56;;;;;;;1.63;1.52;;;16.50;99.90;;;;;;9758985;22;20187;-92
2023/08/29 16:40:43;;;;;;;1.33;1.23;;;16.50;99.90;;;;;;9758375;22;20731;-91
2023/08/29 16:44:30;;;;;;;2.35;1.75;;;16.50;99.90;;;;;;9758545;22;20184;-91
2023/08/29 16:48:16;;;;;;;1.38;1.27;;;16.40;99.90;;;;;;9758299;22;20163;-91
2023/08/29 16:52:19;;;;;;;1.50;1.40;;;16.30;99.90;;;;;;9758717;22;20163;-91
2023/08/29 16:56:07;;;;;;;4.30;2.50;;;16.30;99.90;;;;;;9758417;22;20179;-91
2023/08/29 17:00:07;;;;;;;3.70;2.75;;;16.30;99.90;;;;;;9757627;22;20583;-91
2023/08/29 17:03:52;;;;;;;2.92;2.72;;;16.40;99.90;;;;;;9758328;22;20179;-92
2023/08/29 17:07:41;;;;;;;4.22;3.03;;;16.40;99.90;;;;;;9758274;22;20160;-91
2023/08/29 17:11:29;;;;;;;1.95;1.85;;;16.50;99.90;;;;;;9756905;22;20157;-91
2023/08/29 17:15:15;;;;;;;2.40;2.20;;;16.50;99.90;;;;;;9756676;22;20176;-92
2023/08/29 17:19:06;;;;;;;3.08;2.70;;;16.50;99.90;;;;;;9786079;22;20158;-91
2023/08/29 17:22:59;;;;;;;6.28;3.38;;;16.40;99.90;;;;;;9757459;22;20156;-91
2023/08/29 17:31:17;;;;;;;21.90;14.07;;;16.40;99.90;;;;;;9786052;22;20579;-91
2023/08/29 17:35:10;;;;;;;26.02;18.05;;;16.30;99.90;;;;;;9756313;22;20642;-90
2023/08/29 17:38:59;;;;;;;14.43;9.25;;;16.40;99.90;;;;;;9756846;22;20176;-91
2023/08/29 17:42:57;;;;;;;20.55;14.55;;;16.20;99.90;;;;;;9756401;22;20587;-91
2023/08/29 17:46:43;;;;;;;22.83;11.60;;;16.20;99.90;;;;;;9760851;22;20650;-92
2023/08/29 17:50:29;;;;;;;9.15;7.00;;;16.30;99.90;;;;;;9759351;22;20510;-90
2023/08/29 17:54:14;;;;;;;7.28;6.53;;;16.30;99.90;;;;;;9758736;22;20229;-90
2023/08/29 17:58:02;;;;;;;9.63;6.22;;;16.20;99.90;;;;;;9759266;22;20160;-91
2023/08/29 18:01:51;;;;;;;4.43;3.65;;;16.20;99.90;;;;;;9758810;22;20148;-90
2023/08/29 18:06:11;;;;;;;6.55;5.00;;;16.10;99.90;;;;;;9758254;22;20172;-92
2023/08/29 18:10:29;;;;;;;4.15;3.75;;;16.10;99.90;;;;;;9758703;22;20183;-90
2023/08/29 18:14:18;;;;;;;3.30;2.92;;;15.90;99.90;;;;;;9758861;22;20195;-91
2023/08/29 18:18:25;;;;;;;4.53;3.03;;;15.90;99.90;;;;;;9758772;22;20156;-90
2023/08/29 18:22:25;;;;;;;2.90;2.70;;;15.90;99.90;;;;;;9759285;22;20155;-90
2023/08/29 18:26:10;;;;;;;2.90;2.40;;;15.80;99.90;;;;;;9758967;22;20223;-90
2023/08/29 18:30:03;;;;;;;1.83;1.73;;;15.80;99.90;;;;;;9758975;22;20156;-90
2023/08/29 18:33:57;;;;;;;2.63;2.42;;;15.80;99.90;;;;;;9761686;22;20183;-91
2023/08/29 18:37:42;;;;;;;3.78;2.95;;;15.90;99.90;;;;;;9760486;22;20144;-90
2023/08/29 18:41:28;;;;;;;3.30;2.63;;;16.00;99.90;;;;;;9759577;22;20156;-91
2023/08/29 18:45:16;;;;;;;3.58;3.28;;;16.00;99.90;;;;;;9758870;22;20562;-89
2023/08/29 18:49:03;;;;;;;3.15;2.90;;;16.00;99.90;;;;;;9758468;22;20163;-90
2023/08/29 18:53:06;;;;;;;3.35;3.05;;;15.90;99.90;;;;;;9758665;22;20156;-91
2023/08/29 18:57:06;;;;;;;3.08;2.65;;;15.90;99.90;;;;;;9758096;22;20176;-89
2023/08/29 19:01:02;;;;;;;4.05;3.58;;;15.90;99.90;;;;;;9757867;22;20153;-90
2023/08/29 19:05:00;;;;;;;3.75;3.00;;;15.90;99.90;;;;;;9757991;22;20183;-90
2023/08/29 19:09:03;;;;;;;4.05;3.58;;;15.90;99.90;;;;;;9758098;22;20547;-90
2023/08/29 19:12:51;;;;;;;5.03;4.00;;;15.90;99.90;;;;;;9758097;22;20239;-90
2023/08/29 19:16:37;;;;;;;7.57;5.53;;;15.90;99.90;;;;;;9757876;22;20177;-90
2023/08/29 19:20:22;;;;;;;7.60;4.93;;;16.00;99.90;;;;;;9757766;22;20159;-90
2023/08/29 19:24:09;;;;;;;5.32;4.50;;;15.80;99.90;;;;;;9757682;22;20658;-90
2023/08/29 19:27:59;;;;;;;5.88;3.83;;;15.80;99.90;;;;;;9758078;22;20160;-91
2023/08/29 19:31:45;;;;;;;3.10;2.80;;;15.70;99.90;;;;;;9757976;22;20156;-91
2023/08/29 19:35:47;;;;;;;5.97;5.38;;;15.60;99.90;;;;;;9757941;22;20529;-90
2023/08/29 19:39:40;;;;;;;10.30;9.05;;;15.50;99.90;;;;;;9758452;22;20158;-91
2023/08/29 19:43:27;;;;;;;7.68;4.55;;;15.50;99.90;;;;;;9757637;22;20178;-90
2023/08/29 19:47:14;;;;;;;5.20;4.00;;;15.60;99.90;;;;;;9757526;22;20186;-91
2023/08/29 19:50:59;;;;;;;4.80;4.28;;;15.60;99.90;;;;;;9732127;22;20530;-90